sensor_id;sensor_type;location;lat;lon;timestamp;temperature;humidity
29687;DHT22;16599;47.078;15.536;2023-02-28T00:00:22;-2.10;96.50
29687;DHT22;16599;47.078;15.536;2023-02-28T00:02:49;-2.10;97.10
29687;DHT22;16599;47.078;15.536;2023-02-28T00:05:19;-1.80;97.00
29687;DHT22;16599;47.078;15.536;2023-02-28T00:07:46;-1.70;96.50
29687;DHT22;16599;47.078;15.536;2023-02-28T00:10:14;-1.60;96.30
29687;DHT22;16599;47.078;15.536;2023-02-28T00:12:41;-1.60;96.60
29687;DHT22;16599;47.078;15.536;2023-02-28T00:15:09;-1.70;96.10
29687;DHT22;16599;47.078;15.536;2023-02-28T00:17:36;-1.70;96.40
29687;DHT22;16599;47.078;15.536;2023-02-28T00:20:03;-1.70;96.60
29687;DHT22;16599;47.078;15.536;2023-02-28T00:22:30;-1.70;96.10
29687;DHT22;16599;47.078;15.536;2023-02-28T00:24:57;-1.60;96.20
29687;DHT22;16599;47.078;15.536;2023-02-28T00:27:24;-1.40;96.10
29687;DHT22;16599;47.078;15.536;2023-02-28T00:29:50;-1.30;95.80
29687;DHT22;16599;47.078;15.536;2023-02-28T00:32:17;-1.40;95.90
29687;DHT22;16599;47.078;15.536;2023-02-28T00:34:45;-1.40;96.10
29687;DHT22;16599;47.078;15.536;2023-02-28T00:37:12;-1.40;95.90
29687;DHT22;16599;47.078;15.536;2023-02-28T00:39:38;-1.40;96.10
29687;DHT22;16599;47.078;15.536;2023-02-28T00:42:05;-1.40;96.10
29687;DHT22;16599;47.078;15.536;2023-02-28T00:44:33;-1.50;97.40
29687;DHT22;16599;47.078;15.536;2023-02-28T00:46:59;-1.60;98.10
29687;DHT22;16599;47.078;15.536;2023-02-28T00:49:26;-1.60;98.30
29687;DHT22;16599;47.078;15.536;2023-02-28T00:51:54;-1.40;97.90
29687;DHT22;16599;47.078;15.536;2023-02-28T00:54:21;-1.30;97.60
29687;DHT22;16599;47.078;15.536;2023-02-28T00:56:48;-1.30;97.30
29687;DHT22;16599;47.078;15.536;2023-02-28T00:59:15;-1.40;96.90
29687;DHT22;16599;47.078;15.536;2023-02-28T01:01:42;-1.60;97.90
29687;DHT22;16599;47.078;15.536;2023-02-28T01:04:09;-1.60;98.00
29687;DHT22;16599;47.078;15.536;2023-02-28T01:06:36;-1.50;97.50
29687;DHT22;16599;47.078;15.536;2023-02-28T01:09:04;-1.30;97.40
29687;DHT22;16599;47.078;15.536;2023-02-28T01:11:30;-1.30;97.30
29687;DHT22;16599;47.078;15.536;2023-02-28T01:13:57;-1.40;97.80
29687;DHT22;16599;47.078;15.536;2023-02-28T01:16:25;-1.50;97.50
29687;DHT22;16599;47.078;15.536;2023-02-28T01:18:51;-1.50;97.00
29687;DHT22;16599;47.078;15.536;2023-02-28T01:21:19;-1.40;96.80
29687;DHT22;16599;47.078;15.536;2023-02-28T01:23:46;-1.40;96.60
29687;DHT22;16599;47.078;15.536;2023-02-28T01:26:14;-1.40;96.50
29687;DHT22;16599;47.078;15.536;2023-02-28T01:28:41;-1.40;96.10
29687;DHT22;16599;47.078;15.536;2023-02-28T01:31:08;-1.30;96.10
29687;DHT22;16599;47.078;15.536;2023-02-28T01:33:35;-1.30;97.00
29687;DHT22;16599;47.078;15.536;2023-02-28T01:36:03;-1.30;97.50
29687;DHT22;16599;47.078;15.536;2023-02-28T01:38:30;-1.30;97.10
29687;DHT22;16599;47.078;15.536;2023-02-28T01:40:57;-1.30;97.20
29687;DHT22;16599;47.078;15.536;2023-02-28T01:43:25;-1.30;97.10
29687;DHT22;16599;47.078;15.536;2023-02-28T01:45:53;-1.30;97.10
29687;DHT22;16599;47.078;15.536;2023-02-28T01:48:21;-1.30;97.10
29687;DHT22;16599;47.078;15.536;2023-02-28T01:50:49;-1.30;97.30
29687;DHT22;16599;47.078;15.536;2023-02-28T01:53:17;-1.40;97.00
29687;DHT22;16599;47.078;15.536;2023-02-28T01:55:47;-1.30;97.10
29687;DHT22;16599;47.078;15.536;2023-02-28T01:58:15;-1.20;97.10
29687;DHT22;16599;47.078;15.536;2023-02-28T02:00:41;-1.20;96.60
29687;DHT22;16599;47.078;15.536;2023-02-28T02:03:11;-1.20;96.60
29687;DHT22;16599;47.078;15.536;2023-02-28T02:05:41;-1.20;96.50
29687;DHT22;16599;47.078;15.536;2023-02-28T02:08:09;-1.20;96.20
29687;DHT22;16599;47.078;15.536;2023-02-28T02:10:42;-1.20;96.30
29687;DHT22;16599;47.078;15.536;2023-02-28T02:21:00;-1.00;96.10
29687;DHT22;16599;47.078;15.536;2023-02-28T02:27:01;-1.20;97.10
29687;DHT22;16599;47.078;15.536;2023-02-28T02:34:51;-1.20;97.50
29687;DHT22;16599;47.078;15.536;2023-02-28T02:39:53;-1.20;97.40
29687;DHT22;16599;47.078;15.536;2023-02-28T02:42:23;-1.10;97.30
29687;DHT22;16599;47.078;15.536;2023-02-28T02:44:55;-1.10;96.90
29687;DHT22;16599;47.078;15.536;2023-02-28T02:47:24;-1.10;97.10
29687;DHT22;16599;47.078;15.536;2023-02-28T02:49:52;-1.30;97.80
29687;DHT22;16599;47.078;15.536;2023-02-28T02:52:22;-1.30;97.20
29687;DHT22;16599;47.078;15.536;2023-02-28T02:54:50;-1.20;97.20
29687;DHT22;16599;47.078;15.536;2023-02-28T02:58:05;-1.00;96.80
29687;DHT22;16599;47.078;15.536;2023-02-28T03:00:12;-1.20;97.80
29687;DHT22;16599;47.078;15.536;2023-02-28T03:02:39;-1.20;98.00
29687;DHT22;16599;47.078;15.536;2023-02-28T03:05:30;-1.10;98.00
29687;DHT22;16599;47.078;15.536;2023-02-28T03:08:02;-1.00;97.70
29687;DHT22;16599;47.078;15.536;2023-02-28T03:10:32;-1.10;97.20
29687;DHT22;16599;47.078;15.536;2023-02-28T03:18:36;-1.10;96.60
29687;DHT22;16599;47.078;15.536;2023-02-28T03:21:08;-1.00;96.70
29687;DHT22;16599;47.078;15.536;2023-02-28T03:23:42;-1.00;97.80
29687;DHT22;16599;47.078;15.536;2023-02-28T03:26:13;-1.10;98.60
29687;DHT22;16599;47.078;15.536;2023-02-28T03:28:43;-1.10;98.60
29687;DHT22;16599;47.078;15.536;2023-02-28T03:31:24;-1.10;98.60
29687;DHT22;16599;47.078;15.536;2023-02-28T03:33:55;-1.10;98.80
29687;DHT22;16599;47.078;15.536;2023-02-28T03:36:26;-1.00;98.60
29687;DHT22;16599;47.078;15.536;2023-02-28T03:38:56;-0.90;98.30
29687;DHT22;16599;47.078;15.536;2023-02-28T03:41:30;-0.90;97.80
29687;DHT22;16599;47.078;15.536;2023-02-28T03:44:17;-1.00;97.60
29687;DHT22;16599;47.078;15.536;2023-02-28T03:46:47;-1.00;97.50
29687;DHT22;16599;47.078;15.536;2023-02-28T03:49:27;-0.90;97.60
29687;DHT22;16599;47.078;15.536;2023-02-28T03:51:56;-0.90;97.50
29687;DHT22;16599;47.078;15.536;2023-02-28T03:54:27;-0.90;97.80
29687;DHT22;16599;47.078;15.536;2023-02-28T03:57:00;-0.90;97.80
29687;DHT22;16599;47.078;15.536;2023-02-28T03:59:40;-0.80;97.50
29687;DHT22;16599;47.078;15.536;2023-02-28T04:02:08;-0.70;97.40
29687;DHT22;16599;47.078;15.536;2023-02-28T04:04:35;-0.70;97.00
29687;DHT22;16599;47.078;15.536;2023-02-28T04:07:06;-0.60;96.90
29687;DHT22;16599;47.078;15.536;2023-02-28T04:09:33;-0.80;97.20
29687;DHT22;16599;47.078;15.536;2023-02-28T04:12:00;-1.00;97.00
29687;DHT22;16599;47.078;15.536;2023-02-28T04:14:27;-1.00;96.70
29687;DHT22;16599;47.078;15.536;2023-02-28T04:16:54;-0.90;97.30
29687;DHT22;16599;47.078;15.536;2023-02-28T04:19:20;-0.80;97.30
29687;DHT22;16599;47.078;15.536;2023-02-28T04:21:48;-0.80;97.10
29687;DHT22;16599;47.078;15.536;2023-02-28T04:24:17;-0.70;97.30
29687;DHT22;16599;47.078;15.536;2023-02-28T04:26:45;-0.90;97.70
29687;DHT22;16599;47.078;15.536;2023-02-28T04:29:13;-0.90;97.30
29687;DHT22;16599;47.078;15.536;2023-02-28T04:31:40;-0.80;97.20
29687;DHT22;16599;47.078;15.536;2023-02-28T04:34:06;-0.80;96.70
29687;DHT22;16599;47.078;15.536;2023-02-28T04:36:33;-0.80;96.30
29687;DHT22;16599;47.078;15.536;2023-02-28T04:39:00;-0.80;96.40
29687;DHT22;16599;47.078;15.536;2023-02-28T04:41:27;-0.80;96.70
29687;DHT22;16599;47.078;15.536;2023-02-28T04:43:57;-0.90;96.20
29687;DHT22;16599;47.078;15.536;2023-02-28T04:46:24;-0.90;95.30
29687;DHT22;16599;47.078;15.536;2023-02-28T04:48:51;-0.90;95.00
29687;DHT22;16599;47.078;15.536;2023-02-28T04:51:18;-0.90;95.40
29687;DHT22;16599;47.078;15.536;2023-02-28T04:53:45;-0.90;95.50
29687;DHT22;16599;47.078;15.536;2023-02-28T04:56:13;-0.70;96.00
29687;DHT22;16599;47.078;15.536;2023-02-28T04:58:40;-0.90;95.30
29687;DHT22;16599;47.078;15.536;2023-02-28T05:01:16;-0.80;95.80
29687;DHT22;16599;47.078;15.536;2023-02-28T05:03:43;-0.80;95.60
29687;DHT22;16599;47.078;15.536;2023-02-28T05:06:10;-0.80;95.40
29687;DHT22;16599;47.078;15.536;2023-02-28T05:08:37;-0.80;95.70
29687;DHT22;16599;47.078;15.536;2023-02-28T05:11:06;-0.90;95.20
29687;DHT22;16599;47.078;15.536;2023-02-28T05:13:33;-0.90;95.40
29687;DHT22;16599;47.078;15.536;2023-02-28T05:16:00;-1.00;95.20
29687;DHT22;16599;47.078;15.536;2023-02-28T05:18:27;-1.00;95.40
29687;DHT22;16599;47.078;15.536;2023-02-28T05:20:54;-1.00;95.80
29687;DHT22;16599;47.078;15.536;2023-02-28T05:23:20;-1.10;95.60
29687;DHT22;16599;47.078;15.536;2023-02-28T05:25:48;-1.10;96.10
29687;DHT22;16599;47.078;15.536;2023-02-28T05:28:15;-1.00;95.90
29687;DHT22;16599;47.078;15.536;2023-02-28T05:30:42;-1.10;95.50
29687;DHT22;16599;47.078;15.536;2023-02-28T05:33:10;-1.10;94.80
29687;DHT22;16599;47.078;15.536;2023-02-28T05:35:40;-1.00;95.00
29687;DHT22;16599;47.078;15.536;2023-02-28T05:38:07;-1.00;94.90
29687;DHT22;16599;47.078;15.536;2023-02-28T05:40:34;-1.00;94.90
29687;DHT22;16599;47.078;15.536;2023-02-28T05:43:01;-1.00;95.00
29687;DHT22;16599;47.078;15.536;2023-02-28T05:45:27;-1.00;95.20
29687;DHT22;16599;47.078;15.536;2023-02-28T05:47:55;-1.00;95.20
29687;DHT22;16599;47.078;15.536;2023-02-28T05:50:21;-1.00;95.10
29687;DHT22;16599;47.078;15.536;2023-02-28T05:52:49;-1.00;95.00
29687;DHT22;16599;47.078;15.536;2023-02-28T05:55:16;-1.00;94.90
29687;DHT22;16599;47.078;15.536;2023-02-28T05:57:42;-1.00;95.00
29687;DHT22;16599;47.078;15.536;2023-02-28T06:00:10;-1.00;95.00
29687;DHT22;16599;47.078;15.536;2023-02-28T06:02:38;-0.90;94.90
29687;DHT22;16599;47.078;15.536;2023-02-28T06:05:05;-1.00;94.90
29687;DHT22;16599;47.078;15.536;2023-02-28T06:07:32;-1.00;94.80
29687;DHT22;16599;47.078;15.536;2023-02-28T06:09:58;-1.00;94.90
29687;DHT22;16599;47.078;15.536;2023-02-28T06:12:25;-1.00;95.00
29687;DHT22;16599;47.078;15.536;2023-02-28T06:14:52;-0.90;95.00
29687;DHT22;16599;47.078;15.536;2023-02-28T06:17:18;-0.90;95.00
29687;DHT22;16599;47.078;15.536;2023-02-28T06:19:45;-0.90;95.30
29687;DHT22;16599;47.078;15.536;2023-02-28T06:22:12;-0.90;95.20
29687;DHT22;16599;47.078;15.536;2023-02-28T06:24:39;-0.90;95.20
29687;DHT22;16599;47.078;15.536;2023-02-28T06:27:06;-0.90;94.90
29687;DHT22;16599;47.078;15.536;2023-02-28T06:29:33;-0.90;95.20
29687;DHT22;16599;47.078;15.536;2023-02-28T06:32:00;-0.90;95.20
29687;DHT22;16599;47.078;15.536;2023-02-28T06:34:27;-0.80;95.20
29687;DHT22;16599;47.078;15.536;2023-02-28T06:36:53;-0.90;95.00
29687;DHT22;16599;47.078;15.536;2023-02-28T06:39:20;-0.80;95.00
29687;DHT22;16599;47.078;15.536;2023-02-28T06:41:47;-0.80;95.00
29687;DHT22;16599;47.078;15.536;2023-02-28T06:44:21;-0.80;94.90
29687;DHT22;16599;47.078;15.536;2023-02-28T06:46:48;-0.90;95.00
29687;DHT22;16599;47.078;15.536;2023-02-28T06:49:15;-0.90;95.00
29687;DHT22;16599;47.078;15.536;2023-02-28T06:51:43;-0.90;94.90
29687;DHT22;16599;47.078;15.536;2023-02-28T06:54:13;-0.90;95.00
29687;DHT22;16599;47.078;15.536;2023-02-28T06:56:40;-0.90;95.20
29687;DHT22;16599;47.078;15.536;2023-02-28T06:59:06;-0.80;95.10
29687;DHT22;16599;47.078;15.536;2023-02-28T07:01:33;-0.90;95.20
29687;DHT22;16599;47.078;15.536;2023-02-28T07:04:00;-0.90;95.30
29687;DHT22;16599;47.078;15.536;2023-02-28T07:06:27;-0.90;95.10
29687;DHT22;16599;47.078;15.536;2023-02-28T07:08:54;-0.80;95.00
29687;DHT22;16599;47.078;15.536;2023-02-28T07:11:21;-0.90;95.10
29687;DHT22;16599;47.078;15.536;2023-02-28T07:13:53;-0.80;95.30
29687;DHT22;16599;47.078;15.536;2023-02-28T07:16:21;-0.80;95.20
29687;DHT22;16599;47.078;15.536;2023-02-28T07:18:48;-0.80;95.20
29687;DHT22;16599;47.078;15.536;2023-02-28T07:21:15;-0.80;95.30
29687;DHT22;16599;47.078;15.536;2023-02-28T07:23:42;-0.80;95.30
29687;DHT22;16599;47.078;15.536;2023-02-28T07:26:11;-0.80;95.40
29687;DHT22;16599;47.078;15.536;2023-02-28T07:28:39;-0.70;95.30
29687;DHT22;16599;47.078;15.536;2023-02-28T07:31:06;-0.80;95.30
29687;DHT22;16599;47.078;15.536;2023-02-28T07:33:33;-0.80;95.30
29687;DHT22;16599;47.078;15.536;2023-02-28T07:36:04;-0.80;95.30
29687;DHT22;16599;47.078;15.536;2023-02-28T07:38:33;-0.80;95.50
29687;DHT22;16599;47.078;15.536;2023-02-28T07:41:00;-0.70;95.70
29687;DHT22;16599;47.078;15.536;2023-02-28T07:43:26;-0.70;95.70
29687;DHT22;16599;47.078;15.536;2023-02-28T07:45:53;-0.70;95.70
29687;DHT22;16599;47.078;15.536;2023-02-28T07:48:20;-0.60;95.60
29687;DHT22;16599;47.078;15.536;2023-02-28T07:50:53;-0.70;95.50
29687;DHT22;16599;47.078;15.536;2023-02-28T07:53:21;-0.60;95.90
29687;DHT22;16599;47.078;15.536;2023-02-28T07:55:59;-0.70;95.50
29687;DHT22;16599;47.078;15.536;2023-02-28T07:58:27;-0.60;95.60
29687;DHT22;16599;47.078;15.536;2023-02-28T08:00:54;-0.60;95.80
29687;DHT22;16599;47.078;15.536;2023-02-28T08:03:22;-0.60;95.30
29687;DHT22;16599;47.078;15.536;2023-02-28T08:05:48;-0.60;95.40
29687;DHT22;16599;47.078;15.536;2023-02-28T08:08:15;-0.60;95.40
29687;DHT22;16599;47.078;15.536;2023-02-28T08:10:43;-0.60;95.40
29687;DHT22;16599;47.078;15.536;2023-02-28T08:13:10;-0.50;95.60
29687;DHT22;16599;47.078;15.536;2023-02-28T08:15:36;-0.50;95.30
29687;DHT22;16599;47.078;15.536;2023-02-28T08:18:03;-0.40;95.50
29687;DHT22;16599;47.078;15.536;2023-02-28T08:20:30;-0.40;95.20
29687;DHT22;16599;47.078;15.536;2023-02-28T08:22:57;-0.40;95.20
29687;DHT22;16599;47.078;15.536;2023-02-28T08:25:24;-0.50;95.20
29687;DHT22;16599;47.078;15.536;2023-02-28T08:27:51;-0.40;95.20
29687;DHT22;16599;47.078;15.536;2023-02-28T08:30:18;-0.40;95.40
29687;DHT22;16599;47.078;15.536;2023-02-28T08:32:45;-0.20;95.40
29687;DHT22;16599;47.078;15.536;2023-02-28T08:35:12;-0.10;95.20
29687;DHT22;16599;47.078;15.536;2023-02-28T08:37:38;-0.20;95.10
29687;DHT22;16599;47.078;15.536;2023-02-28T08:40:10;-0.20;95.00
29687;DHT22;16599;47.078;15.536;2023-02-28T08:42:37;-0.10;95.10
29687;DHT22;16599;47.078;15.536;2023-02-28T08:45:04;-0.20;94.90
29687;DHT22;16599;47.078;15.536;2023-02-28T08:47:31;-0.30;95.10
29687;DHT22;16599;47.078;15.536;2023-02-28T08:49:57;-0.20;95.10
29687;DHT22;16599;47.078;15.536;2023-02-28T08:52:24;-0.20;94.90
29687;DHT22;16599;47.078;15.536;2023-02-28T08:54:51;-0.20;95.00
29687;DHT22;16599;47.078;15.536;2023-02-28T08:57:17;-0.20;95.00
29687;DHT22;16599;47.078;15.536;2023-02-28T08:59:44;-0.10;95.20
29687;DHT22;16599;47.078;15.536;2023-02-28T09:02:12;0.00;95.20
29687;DHT22;16599;47.078;15.536;2023-02-28T09:04:40;0.00;94.80
29687;DHT22;16599;47.078;15.536;2023-02-28T09:07:06;0.00;95.00
29687;DHT22;16599;47.078;15.536;2023-02-28T09:09:33;0.00;95.10
29687;DHT22;16599;47.078;15.536;2023-02-28T09:12:00;0.10;95.00
29687;DHT22;16599;47.078;15.536;2023-02-28T09:14:27;0.10;95.00
29687;DHT22;16599;47.078;15.536;2023-02-28T09:16:54;0.00;94.90
29687;DHT22;16599;47.078;15.536;2023-02-28T09:19:21;0.10;94.90
29687;DHT22;16599;47.078;15.536;2023-02-28T09:21:48;0.20;94.90
29687;DHT22;16599;47.078;15.536;2023-02-28T09:24:15;0.10;94.60
29687;DHT22;16599;47.078;15.536;2023-02-28T09:26:42;0.20;94.90
29687;DHT22;16599;47.078;15.536;2023-02-28T09:29:28;0.20;94.90
29687;DHT22;16599;47.078;15.536;2023-02-28T09:31:55;0.30;94.80
29687;DHT22;16599;47.078;15.536;2023-02-28T09:34:25;0.30;94.50
29687;DHT22;16599;47.078;15.536;2023-02-28T09:36:52;0.40;94.20
29687;DHT22;16599;47.078;15.536;2023-02-28T09:39:22;0.40;94.40
29687;DHT22;16599;47.078;15.536;2023-02-28T09:41:52;0.40;94.30
29687;DHT22;16599;47.078;15.536;2023-02-28T09:46:48;0.30;94.10
29687;DHT22;16599;47.078;15.536;2023-02-28T09:49:17;0.20;94.20
29687;DHT22;16599;47.078;15.536;2023-02-28T09:54:20;0.50;94.50
29687;DHT22;16599;47.078;15.536;2023-02-28T09:56:50;0.50;93.90
29687;DHT22;16599;47.078;15.536;2023-02-28T10:01:57;0.50;94.10
29687;DHT22;16599;47.078;15.536;2023-02-28T10:04:47;0.60;94.20
29687;DHT22;16599;47.078;15.536;2023-02-28T10:07:23;0.60;93.90
29687;DHT22;16599;47.078;15.536;2023-02-28T10:09:57;0.50;93.90
29687;DHT22;16599;47.078;15.536;2023-02-28T10:12:25;0.70;94.30
29687;DHT22;16599;47.078;15.536;2023-02-28T10:14:52;0.80;94.30
29687;DHT22;16599;47.078;15.536;2023-02-28T10:17:25;0.90;93.60
29687;DHT22;16599;47.078;15.536;2023-02-28T10:20:00;0.80;93.50
29687;DHT22;16599;47.078;15.536;2023-02-28T10:22:29;0.80;93.40
29687;DHT22;16599;47.078;15.536;2023-02-28T10:24:59;0.60;93.30
29687;DHT22;16599;47.078;15.536;2023-02-28T10:27:32;0.60;93.70
29687;DHT22;16599;47.078;15.536;2023-02-28T10:30:00;0.70;93.30
29687;DHT22;16599;47.078;15.536;2023-02-28T10:32:30;1.00;93.50
29687;DHT22;16599;47.078;15.536;2023-02-28T10:37:41;1.10;93.00
29687;DHT22;16599;47.078;15.536;2023-02-28T10:40:28;1.20;92.80
29687;DHT22;16599;47.078;15.536;2023-02-28T10:45:23;1.20;92.90
29687;DHT22;16599;47.078;15.536;2023-02-28T10:47:57;1.20;92.90
29687;DHT22;16599;47.078;15.536;2023-02-28T10:50:41;1.00;92.90
29687;DHT22;16599;47.078;15.536;2023-02-28T10:55:57;1.80;93.10
29687;DHT22;16599;47.078;15.536;2023-02-28T10:58:25;1.90;91.80
29687;DHT22;16599;47.078;15.536;2023-02-28T11:00:52;1.90;91.10
29687;DHT22;16599;47.078;15.536;2023-02-28T11:03:29;1.70;91.80
29687;DHT22;16599;47.078;15.536;2023-02-28T11:05:56;1.70;92.10
29687;DHT22;16599;47.078;15.536;2023-02-28T11:08:23;1.90;92.30
29687;DHT22;16599;47.078;15.536;2023-02-28T11:10:54;2.10;92.00
29687;DHT22;16599;47.078;15.536;2023-02-28T11:13:25;2.10;91.80
29687;DHT22;16599;47.078;15.536;2023-02-28T11:15:56;1.90;91.70
29687;DHT22;16599;47.078;15.536;2023-02-28T11:19:15;1.90;91.50
29687;DHT22;16599;47.078;15.536;2023-02-28T11:21:15;1.60;91.70
29687;DHT22;16599;47.078;15.536;2023-02-28T11:23:43;1.40;91.80
29687;DHT22;16599;47.078;15.536;2023-02-28T11:26:10;1.50;92.10
29687;DHT22;16599;47.078;15.536;2023-02-28T11:28:38;1.80;92.50
29687;DHT22;16599;47.078;15.536;2023-02-28T11:33:42;1.90;91.60
29687;DHT22;16599;47.078;15.536;2023-02-28T11:36:15;2.10;91.70
29687;DHT22;16599;47.078;15.536;2023-02-28T11:38:45;2.30;91.30
29687;DHT22;16599;47.078;15.536;2023-02-28T11:46:24;2.00;91.90
29687;DHT22;16599;47.078;15.536;2023-02-28T11:51:27;2.50;92.10
29687;DHT22;16599;47.078;15.536;2023-02-28T12:04:17;2.40;90.90
29687;DHT22;16599;47.078;15.536;2023-02-28T12:07:05;2.30;90.60
29687;DHT22;16599;47.078;15.536;2023-02-28T12:09:39;2.40;91.90
29687;DHT22;16599;47.078;15.536;2023-02-28T12:12:20;2.50;91.10
29687;DHT22;16599;47.078;15.536;2023-02-28T12:20:32;3.10;90.30
29687;DHT22;16599;47.078;15.536;2023-02-28T12:28:14;3.30;88.40
29687;DHT22;16599;47.078;15.536;2023-02-28T12:33:38;3.50;90.10
29687;DHT22;16599;47.078;15.536;2023-02-28T12:36:11;3.30;88.50
29687;DHT22;16599;47.078;15.536;2023-02-28T12:39:00;3.10;90.20
29687;DHT22;16599;47.078;15.536;2023-02-28T12:41:27;3.10;90.50
29687;DHT22;16599;47.078;15.536;2023-02-28T12:43:58;3.20;90.50
29687;DHT22;16599;47.078;15.536;2023-02-28T12:46:29;2.80;90.60
29687;DHT22;16599;47.078;15.536;2023-02-28T12:48:56;3.10;90.80
29687;DHT22;16599;47.078;15.536;2023-02-28T12:51:24;3.10;90.20
29687;DHT22;16599;47.078;15.536;2023-02-28T12:53:57;3.10;90.70
29687;DHT22;16599;47.078;15.536;2023-02-28T12:59:25;3.20;91.50
29687;DHT22;16599;47.078;15.536;2023-02-28T13:09:29;3.70;90.00
29687;DHT22;16599;47.078;15.536;2023-02-28T13:11:56;3.20;90.30
29687;DHT22;16599;47.078;15.536;2023-02-28T13:14:35;2.60;90.80
29687;DHT22;16599;47.078;15.536;2023-02-28T13:19:30;2.90;91.40
29687;DHT22;16599;47.078;15.536;2023-02-28T13:21:57;2.90;91.10
29687;DHT22;16599;47.078;15.536;2023-02-28T13:27:11;3.00;91.10
29687;DHT22;16599;47.078;15.536;2023-02-28T13:29:39;3.10;91.10
29687;DHT22;16599;47.078;15.536;2023-02-28T13:39:48;3.70;89.30
29687;DHT22;16599;47.078;15.536;2023-02-28T13:42:37;3.30;90.10
29687;DHT22;16599;47.078;15.536;2023-02-28T13:55:54;3.90;90.40
29687;DHT22;16599;47.078;15.536;2023-02-28T14:03:38;4.00;90.30
29687;DHT22;16599;47.078;15.536;2023-02-28T14:06:10;4.10;89.80
29687;DHT22;16599;47.078;15.536;2023-02-28T14:09:24;3.90;86.40
29687;DHT22;16599;47.078;15.536;2023-02-28T14:11:34;3.60;88.60
29687;DHT22;16599;47.078;15.536;2023-02-28T14:14:02;4.20;90.60
29687;DHT22;16599;47.078;15.536;2023-02-28T14:16:39;5.00;87.10
29687;DHT22;16599;47.078;15.536;2023-02-28T14:19:14;4.60;85.80
29687;DHT22;16599;47.078;15.536;2023-02-28T14:21:51;4.70;85.30
29687;DHT22;16599;47.078;15.536;2023-02-28T14:24:25;4.50;85.20
29687;DHT22;16599;47.078;15.536;2023-02-28T14:37:38;4.40;85.00
29687;DHT22;16599;47.078;15.536;2023-02-28T14:40:11;4.30;87.00
29687;DHT22;16599;47.078;15.536;2023-02-28T14:42:38;4.40;85.50
29687;DHT22;16599;47.078;15.536;2023-02-28T14:45:17;4.30;85.60
29687;DHT22;16599;47.078;15.536;2023-02-28T14:47:44;4.30;86.30
29687;DHT22;16599;47.078;15.536;2023-02-28T14:50:21;4.10;86.20
29687;DHT22;16599;47.078;15.536;2023-02-28T14:52:53;4.10;86.60
29687;DHT22;16599;47.078;15.536;2023-02-28T14:55:31;3.90;87.30
29687;DHT22;16599;47.078;15.536;2023-02-28T14:57:59;3.80;87.20
29687;DHT22;16599;47.078;15.536;2023-02-28T15:00:27;3.70;88.20
29687;DHT22;16599;47.078;15.536;2023-02-28T15:02:54;3.90;89.00
29687;DHT22;16599;47.078;15.536;2023-02-28T15:05:31;4.00;86.30
29687;DHT22;16599;47.078;15.536;2023-02-28T15:08:02;3.90;86.40
29687;DHT22;16599;47.078;15.536;2023-02-28T15:10:29;3.40;88.20
29687;DHT22;16599;47.078;15.536;2023-02-28T15:15:26;3.50;88.60
29687;DHT22;16599;47.078;15.536;2023-02-28T15:18:06;3.30;89.10
29687;DHT22;16599;47.078;15.536;2023-02-28T15:20:33;3.30;89.60
29687;DHT22;16599;47.078;15.536;2023-02-28T15:23:02;3.20;90.00
29687;DHT22;16599;47.078;15.536;2023-02-28T15:25:28;3.00;89.70
29687;DHT22;16599;47.078;15.536;2023-02-28T15:27:55;3.10;90.10
29687;DHT22;16599;47.078;15.536;2023-02-28T15:30:24;2.90;89.10
29687;DHT22;16599;47.078;15.536;2023-02-28T15:33:06;2.80;90.10
29687;DHT22;16599;47.078;15.536;2023-02-28T15:35:34;2.80;90.20
29687;DHT22;16599;47.078;15.536;2023-02-28T15:40:51;3.10;90.00
29687;DHT22;16599;47.078;15.536;2023-02-28T15:48:20;2.80;89.70
29687;DHT22;16599;47.078;15.536;2023-02-28T15:50:48;2.70;89.80
29687;DHT22;16599;47.078;15.536;2023-02-28T15:53:17;2.70;90.10
29687;DHT22;16599;47.078;15.536;2023-02-28T15:55:44;2.70;90.10
29687;DHT22;16599;47.078;15.536;2023-02-28T15:58:12;2.70;89.80
29687;DHT22;16599;47.078;15.536;2023-02-28T16:00:39;2.70;90.10
29687;DHT22;16599;47.078;15.536;2023-02-28T16:03:22;2.70;89.90
29687;DHT22;16599;47.078;15.536;2023-02-28T16:06:07;2.70;90.10
29687;DHT22;16599;47.078;15.536;2023-02-28T16:08:34;2.70;90.10
29687;DHT22;16599;47.078;15.536;2023-02-28T16:11:01;2.80;90.10
29687;DHT22;16599;47.078;15.536;2023-02-28T16:13:27;2.80;90.40
29687;DHT22;16599;47.078;15.536;2023-02-28T16:15:54;2.70;90.40
29687;DHT22;16599;47.078;15.536;2023-02-28T16:18:21;2.70;90.50
29687;DHT22;16599;47.078;15.536;2023-02-28T16:20:47;2.70;90.90
29687;DHT22;16599;47.078;15.536;2023-02-28T16:23:14;2.80;90.60
29687;DHT22;16599;47.078;15.536;2023-02-28T16:25:42;2.80;90.20
29687;DHT22;16599;47.078;15.536;2023-02-28T16:28:17;2.70;90.90
29687;DHT22;16599;47.078;15.536;2023-02-28T16:30:48;2.60;90.90
29687;DHT22;16599;47.078;15.536;2023-02-28T16:33:18;2.70;90.70
29687;DHT22;16599;47.078;15.536;2023-02-28T16:38:26;2.60;90.50
29687;DHT22;16599;47.078;15.536;2023-02-28T16:40:53;2.60;90.40
29687;DHT22;16599;47.078;15.536;2023-02-28T16:43:23;2.60;90.30
29687;DHT22;16599;47.078;15.536;2023-02-28T16:45:57;2.60;90.60
29687;DHT22;16599;47.078;15.536;2023-02-28T16:48:26;2.60;90.50
29687;DHT22;16599;47.078;15.536;2023-02-28T16:50:53;2.70;90.40
29687;DHT22;16599;47.078;15.536;2023-02-28T16:53:21;2.60;90.50
29687;DHT22;16599;47.078;15.536;2023-02-28T16:55:47;2.60;90.40
29687;DHT22;16599;47.078;15.536;2023-02-28T16:58:15;2.60;90.50
29687;DHT22;16599;47.078;15.536;2023-02-28T17:00:42;2.60;90.80
29687;DHT22;16599;47.078;15.536;2023-02-28T17:03:23;2.60;91.00
29687;DHT22;16599;47.078;15.536;2023-02-28T17:05:58;2.60;91.10
29687;DHT22;16599;47.078;15.536;2023-02-28T17:08:25;2.60;90.80
29687;DHT22;16599;47.078;15.536;2023-02-28T17:10:53;2.60;90.90
29687;DHT22;16599;47.078;15.536;2023-02-28T17:13:19;2.70;91.20
29687;DHT22;16599;47.078;15.536;2023-02-28T17:15:46;2.70;90.90
29687;DHT22;16599;47.078;15.536;2023-02-28T17:18:14;2.80;91.10
29687;DHT22;16599;47.078;15.536;2023-02-28T17:20:42;2.70;90.70
29687;DHT22;16599;47.078;15.536;2023-02-28T17:23:09;2.60;90.80
29687;DHT22;16599;47.078;15.536;2023-02-28T17:25:35;2.70;91.20
29687;DHT22;16599;47.078;15.536;2023-02-28T17:28:02;2.70;91.40
29687;DHT22;16599;47.078;15.536;2023-02-28T17:30:31;2.70;91.40
29687;DHT22;16599;47.078;15.536;2023-02-28T17:32:59;2.70;91.60
29687;DHT22;16599;47.078;15.536;2023-02-28T17:35:26;2.60;92.00
29687;DHT22;16599;47.078;15.536;2023-02-28T17:37:53;2.50;91.90
29687;DHT22;16599;47.078;15.536;2023-02-28T17:40:20;2.50;91.50
29687;DHT22;16599;47.078;15.536;2023-02-28T17:42:47;2.50;91.60
29687;DHT22;16599;47.078;15.536;2023-02-28T17:45:14;2.40;91.60
29687;DHT22;16599;47.078;15.536;2023-02-28T17:47:41;2.20;92.30
29687;DHT22;16599;47.078;15.536;2023-02-28T17:50:12;2.10;92.40
29687;DHT22;16599;47.078;15.536;2023-02-28T17:52:40;2.20;92.70